Time;durP1;ratioP1;P1;durP2;ratioP2;P2;SDS_P1;SDS_P2;PMS_P1;PMS_P2;Temp;Humidity;BMP_temperature;BMP_pressure;BME280_temperature;BME280_humidity;BME280_pressure;Samples;Min_cycle;Max_cycle;Signal;HPM_P1;HPM_P2
2022/10/01 00:01:39;;;;;;;8.17;5.87;;;;;;;12.72;62.06;97182.69;5049760;28;20216;-73
2022/10/01 00:04:04;;;;;;;6.90;6.10;;;;;;;12.59;63.01;97191.06;5050131;28;20218;-71
2022/10/01 00:06:30;;;;;;;8.37;5.80;;;;;;;12.55;62.77;97196.81;5047474;28;20179;-72
2022/10/01 00:08:56;;;;;;;7.10;5.97;;;;;;;12.65;62.40;97200.09;5042743;28;20245;-71
2022/10/01 00:11:24;;;;;;;6.80;5.70;;;;;;;12.69;62.22;97195.31;5049610;28;20700;-73
2022/10/01 00:13:51;;;;;;;7.10;5.50;;;;;;;12.72;62.36;97189.75;5050330;28;20471;-73
2022/10/01 00:16:19;;;;;;;6.80;6.10;;;;;;;12.75;62.09;97184.97;5049813;28;20433;-70
2022/10/01 00:18:46;;;;;;;7.83;5.37;;;;;;;12.78;62.22;97183.84;5041353;28;20441;-72
2022/10/01 00:21:16;;;;;;;6.10;5.43;;;;;;;12.64;62.28;97180.06;5039679;28;20930;-73
2022/10/01 00:23:42;;;;;;;7.07;6.33;;;;;;;12.63;62.52;97181.03;5049887;28;20432;-73
2022/10/01 00:26:12;;;;;;;6.83;6.13;;;;;;;12.62;62.50;97181.22;5049765;28;20493;-73
2022/10/01 00:28:38;;;;;;;8.27;5.60;;;;;;;12.73;62.63;97183.50;5032357;28;20237;-73
2022/10/01 00:31:06;;;;;;;6.53;5.73;;;;;;;12.75;62.12;97189.41;5049086;28;20487;-73
2022/10/01 00:33:31;;;;;;;10.37;6.10;;;;;;;12.77;61.92;97194.50;5050214;28;20796;-72
2022/10/01 00:35:57;;;;;;;5.87;5.37;;;;;;;12.79;61.84;97187.28;5049817;28;20441;-73
2022/10/01 00:38:23;;;;;;;6.57;5.80;;;;;;;12.72;62.01;97172.16;5032522;28;20679;-74
2022/10/01 00:40:48;;;;;;;8.37;6.00;;;;;;;12.79;61.83;97180.19;5035704;28;20545;-74
2022/10/01 00:43:19;;;;;;;5.43;4.93;;;;;;;12.72;61.91;97180.06;5051614;28;20244;-73
2022/10/01 00:45:45;;;;;;;6.10;5.10;;;;;;;12.68;62.09;97173.47;5053840;28;20429;-74
2022/10/01 00:48:10;;;;;;;7.33;5.50;;;;;;;12.71;62.18;97175.78;5052265;28;20534;-72
2022/10/01 00:50:37;;;;;;;6.20;5.50;;;;;;;12.73;62.40;97181.66;5053695;28;20256;-73
2022/10/01 00:53:06;;;;;;;6.87;6.13;;;;;;;12.74;61.93;97187.78;5053235;28;20261;-74
2022/10/01 00:55:37;;;;;;;6.23;5.60;;;;;;;12.78;62.02;97193.50;5053280;28;20433;-73
2022/10/01 00:58:03;;;;;;;9.87;5.80;;;;;;;12.77;61.93;97200.59;5051554;28;20477;-73
2022/10/01 01:00:29;;;;;;;5.80;5.30;;;;;;;12.80;61.84;97191.53;5039853;28;20422;-73
2022/10/01 01:02:55;;;;;;;5.73;5.20;;;;;;;12.83;61.82;97194.66;5047281;28;20421;-72
2022/10/01 01:05:22;;;;;;;5.70;5.20;;;;;;;12.82;61.96;97189.56;5053192;28;21005;-72
2022/10/01 01:07:49;;;;;;;7.10;5.27;;;;;;;12.80;61.88;97188.91;5048696;28;20207;-73
2022/10/01 01:10:17;;;;;;;6.33;5.33;;;;;;;12.79;62.08;97182.00;5050255;28;20476;-74
2022/10/01 01:12:51;;;;;;;5.20;4.70;;;;;;;12.78;61.73;97188.25;5051750;28;20434;-73
2022/10/01 01:15:30;;;;;;;5.50;5.00;;;;;;;12.78;61.93;97177.72;5053017;28;20544;-73
2022/10/01 01:18:11;;;;;;;7.13;5.13;;;;;;;12.77;61.83;97178.72;5043781;28;20438;-74
2022/10/01 01:20:50;;;;;;;8.23;5.07;;;;;;;12.78;61.62;97181.19;5033389;28;20419;-73
2022/10/01 01:23:15;;;;;;;5.83;4.53;;;;;;;12.67;61.92;97171.84;5048796;28;20425;-72
2022/10/01 01:25:54;;;;;;;5.10;4.60;;;;;;;12.74;61.98;97175.44;5053392;28;20483;-71
2022/10/01 01:28:30;;;;;;;13.80;4.60;;;;;;;12.84;61.85;97171.81;5050431;28;20210;-71
2022/10/01 01:30:58;;;;;;;5.10;4.60;;;;;;;12.88;61.45;97167.84;5051329;28;21218;-73
2022/10/01 01:33:26;;;;;;;4.87;3.87;;;;;;;12.84;61.42;97166.56;5048759;28;20441;-73
2022/10/01 01:35:55;;;;;;;5.30;4.67;;;;;;;12.87;61.17;97160.94;5046316;28;20472;-73
2022/10/01 01:38:24;;;;;;;12.47;4.47;;;;;;;12.84;61.16;97150.78;5041092;28;20454;-72
2022/10/01 01:40:50;;;;;;;6.90;3.90;;;;;;;12.86;61.24;97148.78;5047024;28;20477;-73
2022/10/01 01:43:19;;;;;;;4.27;3.87;;;;;;;12.89;61.14;97141.41;5050511;28;20418;-73
2022/10/01 01:45:47;;;;;;;4.53;4.13;;;;;;;12.90;61.22;97124.63;5043398;28;20836;-73
2022/10/01 01:48:13;;;;;;;4.20;3.80;;;;;;;12.97;60.77;97139.72;5049695;28;20437;-73
2022/10/01 01:50:47;;;;;;;9.10;4.17;;;;;;;12.91;60.95;97130.69;5048234;28;20464;-73
2022/10/01 01:53:14;;;;;;;4.40;4.00;;;;;;;12.93;60.95;97127.88;5047597;28;20257;-72
2022/10/01 01:55:40;;;;;;;4.10;3.60;;;;;;;12.92;60.67;97113.94;5052770;28;20437;-73
2022/10/01 01:58:07;;;;;;;4.70;4.30;;;;;;;12.91;60.54;97120.16;5049696;28;20437;-73
2022/10/01 02:00:32;;;;;;;4.30;3.90;;;;;;;12.95;60.60;97118.84;5051895;28;20780;-72
2022/10/01 02:02:57;;;;;;;4.43;4.03;;;;;;;12.96;60.54;97103.88;5044087;28;20430;-73
2022/10/01 02:05:26;;;;;;;5.57;4.17;;;;;;;13.00;60.66;97110.44;5050842;28;22076;-72
2022/10/01 02:08:13;;;;;;;4.20;3.80;;;;;;;13.03;60.28;97108.28;5045821;28;20211;-73
2022/10/01 02:11:00;;;;;;;4.33;3.93;;;;;;;13.02;60.18;97103.22;5038517;28;20988;-74
2022/10/01 02:13:31;;;;;;;4.40;4.00;;;;;;;13.01;60.23;97105.00;5050163;28;20421;-73
2022/10/01 02:16:21;;;;;;;4.90;4.17;;;;;;;13.01;60.38;97109.47;5051538;28;20421;-73
2022/10/01 02:19:12;;;;;;;4.93;4.20;;;;;;;12.97;60.32;97102.91;5051888;28;20437;-72
2022/10/01 02:21:41;;;;;;;4.63;4.23;;;;;;;12.90;60.48;97105.38;5042508;28;20467;-73
2022/10/01 02:24:21;;;;;;;7.53;4.20;;;;;;;12.89;60.15;97098.47;5051385;28;20425;-73
2022/10/01 02:26:48;;;;;;;4.80;3.70;;;;;;;12.95;60.11;97087.28;5050412;28;20425;-73
2022/10/01 02:29:16;;;;;;;5.30;3.93;;;;;;;12.88;60.14;97095.03;5050384;28;20422;-72
2022/10/01 02:31:41;;;;;;;4.30;3.90;;;;;;;12.93;60.31;97091.91;5049970;28;20418;-74
2022/10/01 02:34:07;;;;;;;4.17;3.77;;;;;;;12.97;60.17;97093.22;5051296;28;20799;-73
2022/10/01 02:36:34;;;;;;;5.43;4.00;;;;;;;12.98;60.56;97092.19;5042185;28;20192;-73
2022/10/01 02:39:01;;;;;;;4.47;4.07;;;;;;;13.00;60.03;97108.63;5038173;28;20528;-72
2022/10/01 02:41:33;;;;;;;4.70;3.77;;;;;;;13.03;59.96;97100.41;5044786;28;20913;-73
2022/10/01 02:44:13;;;;;;;4.60;3.67;;;;;;;12.98;60.22;97099.28;5042555;28;20930;-72
2022/10/01 02:47:01;;;;;;;8.13;4.17;;;;;;;13.00;59.90;97095.47;5040371;28;20489;-74
2022/10/01 02:49:28;;;;;;;3.70;3.40;;;;;;;13.04;59.75;97094.16;5051163;28;20461;-73
2022/10/01 02:52:01;;;;;;;4.63;4.00;;;;;;;12.99;59.53;97088.56;5050887;28;20937;-72
2022/10/01 02:54:31;;;;;;;4.40;4.00;;;;;;;12.98;59.69;97084.28;5050290;28;20501;-73
2022/10/01 02:59:43;;;;;;;7.77;3.30;;;;;;;13.01;59.37;97080.53;5051567;28;20414;-74
2022/10/01 03:02:08;;;;;;;4.20;3.73;;;;;;;12.96;59.58;97075.78;5051292;28;20476;-73
2022/10/01 03:04:34;;;;;;;3.77;3.47;;;;;;;13.00;59.65;97084.94;5049757;28;20171;-74
2022/10/01 03:07:02;;;;;;;5.20;3.33;;;;;;;13.03;59.50;97081.19;5050317;28;20301;-74
2022/10/01 03:09:33;;;;;;;3.83;3.43;;;;;;;13.03;59.53;97083.81;5044062;28;20203;-74
2022/10/01 03:11:59;;;;;;;3.77;3.47;;;;;;;13.01;59.62;97073.44;5050969;28;20421;-72
2022/10/01 03:14:25;;;;;;;3.97;3.57;;;;;;;13.04;59.69;97070.47;5050267;28;20917;-73
2022/10/01 03:16:51;;;;;;;7.33;3.40;;;;;;;13.04;59.32;97074.94;5050494;28;20416;-74
2022/10/01 03:19:16;;;;;;;5.03;4.20;;;;;;;12.96;59.91;97081.03;5050844;28;20232;-73
2022/10/01 03:21:42;;;;;;;4.40;4.00;;;;;;;12.95;59.44;97074.13;5043037;28;20539;-72
2022/10/01 03:24:07;;;;;;;6.57;3.57;;;;;;;12.97;58.96;97066.06;5050454;28;20191;-73
2022/10/01 03:26:34;;;;;;;3.90;3.07;;;;;;;13.00;59.39;97063.91;5013869;28;20254;-74
2022/10/01 03:29:00;;;;;;;4.07;3.60;;;;;;;13.01;59.00;97062.91;5043787;28;20279;-73
2022/10/01 03:31:25;;;;;;;4.00;3.70;;;;;;;12.93;59.12;97060.34;5029587;28;20545;-73
2022/10/01 03:33:51;;;;;;;7.53;3.50;;;;;;;12.92;59.19;97061.31;5030584;28;20179;-74
2022/10/01 03:36:16;;;;;;;3.57;3.27;;;;;;;12.96;59.50;97073.16;5029856;28;20206;-71
2022/10/01 03:38:42;;;;;;;3.90;3.40;;;;;;;12.92;58.89;97060.50;5030392;28;20203;-73
2022/10/01 03:41:07;;;;;;;10.00;3.07;;;;;;;12.85;59.21;97063.81;5031113;28;20167;-73
2022/10/01 03:43:34;;;;;;;6.63;3.60;;;;;;;12.90;59.11;97065.94;5030660;28;20183;-73
2022/10/01 03:46:00;;;;;;;5.17;3.50;;;;;;;12.93;58.74;97055.06;5030540;28;20191;-74
2022/10/01 03:48:26;;;;;;;3.40;3.10;;;;;;;12.89;58.71;97057.22;5029696;28;20438;-74
2022/10/01 03:50:57;;;;;;;4.90;3.00;;;;;;;12.84;58.92;97042.97;5030696;28;20454;-74
2022/10/01 03:53:23;;;;;;;3.57;3.27;;;;;;;12.78;58.92;97047.09;5030338;28;20418;-74
2022/10/01 03:55:49;;;;;;;3.30;3.00;;;;;;;12.80;59.27;97046.91;5032312;28;20423;-74
2022/10/01 03:58:15;;;;;;;3.30;3.00;;;;;;;12.71;59.00;97036.44;5037397;28;20539;-73
2022/10/01 04:00:41;;;;;;;9.57;2.87;;;;;;;12.75;58.82;97042.16;5029618;28;20183;-73
2022/10/01 04:03:06;;;;;;;2.93;2.70;;;;;;;12.83;58.63;97038.69;5036745;28;20434;-73
2022/10/01 04:05:32;;;;;;;2.70;2.47;;;;;;;12.87;58.79;97034.69;5030690;28;20172;-73
2022/10/01 04:07:58;;;;;;;4.63;2.63;;;;;;;12.86;58.56;97033.06;5028255;28;20319;-73
2022/10/01 04:10:24;;;;;;;5.23;3.03;;;;;;;12.81;58.91;97040.66;5030239;28;20218;-72
2022/10/01 04:12:49;;;;;;;3.43;2.77;;;;;;;12.78;58.59;97038.34;5029632;28;20445;-73
2022/10/01 04:15:15;;;;;;;4.10;2.50;;;;;;;12.68;59.29;97028.88;5038089;28;20184;-73
2022/10/01 04:17:41;;;;;;;4.60;2.90;;;;;;;12.66;58.89;97015.06;5029135;28;20226;-73
2022/10/01 04:20:07;;;;;;;4.73;2.63;;;;;;;12.74;58.52;97014.22;5029590;28;20250;-73
2022/10/01 04:22:38;;;;;;;4.03;2.67;;;;;;;12.69;59.02;97013.91;5036991;28;20179;-73
2022/10/01 04:25:04;;;;;;;2.90;2.60;;;;;;;12.74;58.92;97020.28;5033266;28;20444;-73
2022/10/01 04:27:30;;;;;;;2.53;2.33;;;;;;;12.57;58.80;97014.28;5029976;28;20519;-73
2022/10/01 04:29:55;;;;;;;2.77;2.57;;;;;;;12.63;59.00;97012.78;5029297;28;20549;-72
2022/10/01 04:32:21;;;;;;;4.33;2.67;;;;;;;12.50;59.05;97021.22;5037966;28;20662;-73
2022/10/01 04:34:52;;;;;;;3.33;3.03;;;;;;;12.65;59.11;97020.50;5029847;28;20686;-73
2022/10/01 04:37:19;;;;;;;2.60;2.40;;;;;;;12.70;59.08;97015.53;5026474;28;20290;-74
2022/10/01 04:39:44;;;;;;;2.57;2.37;;;;;;;12.66;58.61;97007.19;5029273;28;20560;-73
2022/10/01 04:42:12;;;;;;;7.13;2.40;;;;;;;12.68;58.46;97013.09;5030900;28;20510;-75
2022/10/01 04:44:37;;;;;;;2.73;2.53;;;;;;;12.74;58.44;97012.41;5028804;28;20184;-73
2022/10/01 04:47:03;;;;;;;2.50;2.20;;;;;;;12.75;58.39;97016.66;5022259;28;20431;-73
2022/10/01 04:49:30;;;;;;;3.47;2.50;;;;;;;12.68;58.39;97017.50;5037598;28;20217;-74
2022/10/01 04:51:55;;;;;;;3.30;2.10;;;;;;;12.68;58.53;97010.47;5029872;28;20546;-74
2022/10/01 04:54:20;;;;;;;2.97;2.77;;;;;;;12.69;58.44;97012.09;5028806;28;20505;-73
2022/10/01 04:56:46;;;;;;;2.40;2.20;;;;;;;12.74;58.33;97003.69;5030000;28;20203;-71
2022/10/01 04:59:11;;;;;;;3.43;2.30;;;;;;;12.79;58.56;97013.72;5028629;28;20303;-73
2022/10/01 05:01:37;;;;;;;2.60;2.40;;;;;;;12.75;58.21;97014.03;5029985;28;20271;-73
2022/10/01 05:04:02;;;;;;;2.37;2.10;;;;;;;12.68;58.43;97007.84;5028723;28;20207;-73
2022/10/01 05:06:27;;;;;;;7.70;2.17;;;;;;;12.67;58.41;97008.00;5037041;28;20275;-73
2022/10/01 05:08:53;;;;;;;2.20;2.00;;;;;;;12.79;58.24;97008.44;5029662;28;20275;-73
2022/10/01 05:11:18;;;;;;;2.70;2.10;;;;;;;12.81;58.18;97007.28;5029479;28;20239;-73
2022/10/01 05:13:44;;;;;;;1.97;1.87;;;;;;;12.80;57.90;97010.09;5034106;28;20179;-73
2022/10/01 05:16:10;;;;;;;2.63;2.43;;;;;;;12.69;58.19;97009.47;5032139;28;20222;-73
2022/10/01 05:18:39;;;;;;;2.50;1.90;;;;;;;12.80;57.87;97007.47;5027950;28;20204;-73
2022/10/01 05:21:05;;;;;;;2.40;2.20;;;;;;;12.80;57.84;97002.19;5045374;28;20501;-72
2022/10/01 05:23:32;;;;;;;2.23;2.07;;;;;;;12.83;57.68;97007.94;5029536;28;20426;-74
2022/10/01 05:25:57;;;;;;;3.00;2.03;;;;;;;12.91;57.65;97012.34;5026724;28;20945;-73
2022/10/01 05:28:23;;;;;;;5.47;1.90;;;;;;;12.89;57.52;97011.69;5031596;28;20456;-74
2022/10/01 05:30:49;;;;;;;1.87;1.77;;;;;;;12.89;57.23;97017.78;5051180;28;20617;-75
2022/10/01 05:33:15;;;;;;;1.80;1.70;;;;;;;12.92;57.38;97003.44;5047717;28;20710;-73
2022/10/01 05:35:41;;;;;;;2.17;1.97;;;;;;;12.95;57.25;97002.28;5036309;28;20436;-74
2022/10/01 05:38:06;;;;;;;3.67;2.63;;;;;;;12.93;57.53;96999.84;5040936;28;20685;-74
2022/10/01 05:40:32;;;;;;;2.07;1.73;;;;;;;12.95;57.29;97011.00;5049568;28;20179;-73
2022/10/01 05:42:58;;;;;;;5.00;2.13;;;;;;;12.88;57.18;97010.03;5048544;28;20187;-74
2022/10/01 05:45:26;;;;;;;2.03;1.80;;;;;;;12.93;56.90;97007.72;5052534;28;20186;-73
2022/10/01 05:47:59;;;;;;;2.00;1.90;;;;;;;12.92;56.60;96997.38;5050161;28;20528;-74
2022/10/01 05:50:24;;;;;;;4.90;2.20;;;;;;;12.84;57.24;96995.63;5052658;28;20548;-72
2022/10/01 05:52:52;;;;;;;2.10;2.00;;;;;;;12.85;57.39;96984.09;5052046;28;20583;-72
2022/10/01 05:55:18;;;;;;;1.80;1.70;;;;;;;12.93;56.93;96986.69;5049675;28;20206;-72
2022/10/01 05:57:43;;;;;;;2.33;2.13;;;;;;;12.95;57.02;96979.44;5045816;28;20433;-74
2022/10/01 06:00:11;;;;;;;4.07;2.10;;;;;;;12.92;57.05;96977.16;5052455;28;20421;-73
2022/10/01 06:02:37;;;;;;;2.77;1.90;;;;;;;12.94;57.13;96972.53;5051274;28;20179;-73
2022/10/01 06:05:02;;;;;;;1.80;1.70;;;;;;;12.77;57.02;96963.09;5052684;28;20943;-74
2022/10/01 06:07:30;;;;;;;9.20;2.07;;;;;;;12.93;57.38;96949.88;5036697;28;20199;-73
2022/10/01 06:09:55;;;;;;;2.10;2.00;;;;;;;12.90;57.60;96950.19;5051495;28;20210;-72
2022/10/01 06:12:21;;;;;;;1.97;1.63;;;;;;;12.81;58.51;96935.47;5052216;28;20865;-74
2022/10/01 06:14:46;;;;;;;2.33;1.80;;;;;;;12.87;57.94;96937.38;5051755;28;20179;-74
2022/10/01 06:17:12;;;;;;;3.20;2.30;;;;;;;12.85;58.42;96928.88;5049959;28;20278;-73
2022/10/01 06:19:37;;;;;;;2.10;1.90;;;;;;;12.94;58.25;96930.47;5052141;28;20705;-75
2022/10/01 06:22:03;;;;;;;2.43;1.87;;;;;;;12.81;58.94;96930.22;5044193;28;20799;-72
2022/10/01 06:24:29;;;;;;;4.30;1.60;;;;;;;12.73;59.23;96931.06;5050751;28;20209;-73
2022/10/01 06:26:55;;;;;;;1.80;1.67;;;;;;;12.72;59.99;96930.25;5050530;28;20263;-73
2022/10/01 06:29:20;;;;;;;1.83;1.73;;;;;;;12.80;59.76;96925.94;5050133;28;20512;-74
2022/10/01 06:31:46;;;;;;;2.93;2.20;;;;;;;12.82;60.39;96921.34;5044689;28;20185;-72
2022/10/01 06:34:11;;;;;;;2.00;1.77;;;;;;;12.85;59.58;96921.00;5051402;28;20207;-73
2022/10/01 06:36:36;;;;;;;3.37;2.00;;;;;;;12.77;60.05;96921.84;5039840;28;20198;-73
2022/10/01 06:39:02;;;;;;;1.97;1.80;;;;;;;12.78;60.24;96925.28;5047431;28;20230;-74
2022/10/01 06:41:27;;;;;;;3.97;1.87;;;;;;;12.83;59.70;96917.72;5045173;28;20653;-72
2022/10/01 06:43:53;;;;;;;3.00;2.27;;;;;;;12.90;60.03;96923.91;5037596;28;20218;-74
2022/10/01 06:46:18;;;;;;;5.33;1.80;;;;;;;12.96;59.76;96922.38;5048233;28;20233;-73
2022/10/01 06:48:44;;;;;;;4.47;2.30;;;;;;;12.98;59.14;96921.22;5050914;28;20290;-73
2022/10/01 06:51:09;;;;;;;2.07;1.70;;;;;;;12.98;59.54;96926.47;5049961;28;20214;-75
2022/10/01 06:53:35;;;;;;;1.90;1.80;;;;;;;12.95;59.47;96921.59;5051269;28;20849;-74
2022/10/01 06:56:06;;;;;;;2.93;2.13;;;;;;;12.99;59.61;96919.41;5051467;28;20268;-72
2022/10/01 06:58:32;;;;;;;2.27;2.07;;;;;;;12.93;60.04;96923.56;5050971;28;20226;-74
2022/10/01 07:01:00;;;;;;;2.10;1.90;;;;;;;13.04;60.07;96925.78;5049234;28;20450;-73
2022/10/01 07:03:25;;;;;;;1.90;1.80;;;;;;;12.97;59.94;96930.13;5050181;28;20204;-73
2022/10/01 07:05:51;;;;;;;2.17;1.97;;;;;;;12.96;59.94;96933.75;5040179;28;20457;-74
2022/10/01 07:08:16;;;;;;;2.27;2.07;;;;;;;12.90;59.69;96927.38;5046043;28;20198;-72
2022/10/01 07:10:43;;;;;;;2.40;1.97;;;;;;;12.98;59.31;96926.47;5049793;28;20230;-72
2022/10/01 07:13:13;;;;;;;2.80;1.93;;;;;;;13.04;59.07;96930.25;5050949;28;20243;-74
2022/10/01 07:15:39;;;;;;;2.37;2.17;;;;;;;13.09;59.20;96930.53;5051005;28;20456;-72
2022/10/01 07:18:05;;;;;;;2.80;2.30;;;;;;;13.12;59.66;96922.28;5049938;28;20481;-72
2022/10/01 07:20:34;;;;;;;2.80;1.93;;;;;;;13.14;59.01;96927.34;5046544;28;20186;-74
2022/10/01 07:23:00;;;;;;;2.23;2.07;;;;;;;13.20;59.42;96937.19;5046224;28;20517;-74
2022/10/01 07:25:26;;;;;;;2.00;1.90;;;;;;;13.09;59.49;96937.59;5050860;28;20425;-74
2022/10/01 07:27:59;;;;;;;3.00;2.20;;;;;;;12.94;60.28;96911.22;5050611;28;20452;-74
2022/10/01 07:30:25;;;;;;;2.87;1.87;;;;;;;12.96;59.95;96907.44;5050865;28;20223;-74
2022/10/01 07:32:51;;;;;;;2.77;2.10;;;;;;;12.97;59.74;96916.13;5042732;28;20441;-73
2022/10/01 07:35:19;;;;;;;3.10;2.10;;;;;;;12.96;59.95;96899.53;5047419;28;20203;-71
2022/10/01 07:37:46;;;;;;;2.17;2.03;;;;;;;13.10;59.73;96902.41;5034446;28;20199;-74
2022/10/01 07:40:11;;;;;;;2.87;2.03;;;;;;;13.11;59.67;96904.84;5048819;28;20429;-74
2022/10/01 07:42:37;;;;;;;2.70;1.90;;;;;;;13.00;59.60;96908.69;5049672;28;20505;-74
2022/10/01 07:45:05;;;;;;;2.30;2.10;;;;;;;13.02;59.79;96901.47;5050585;28;20178;-73
2022/10/01 07:47:31;;;;;;;2.60;1.90;;;;;;;12.94;60.04;96908.59;5048379;28;20190;-73
2022/10/01 07:49:56;;;;;;;2.67;1.73;;;;;;;12.95;60.03;96900.53;5049084;28;20452;-73
2022/10/01 07:52:21;;;;;;;1.90;1.70;;;;;;;12.97;59.77;96903.81;5050559;28;20657;-74
2022/10/01 07:54:47;;;;;;;1.97;1.87;;;;;;;13.04;59.87;96909.19;5050526;28;20263;-73
2022/10/01 07:57:13;;;;;;;2.40;2.20;;;;;;;13.14;60.03;96908.94;5048524;28;20199;-72
2022/10/01 07:59:39;;;;;;;2.70;2.17;;;;;;;13.12;60.09;96908.28;5041857;28;20643;-73
2022/10/01 08:02:11;;;;;;;4.83;2.33;;;;;;;12.95;60.68;96916.31;5049871;28;20426;-72
2022/10/01 08:07:20;;;;;;;5.53;2.00;;;;;;;13.00;61.43;96911.34;5035033;28;20487;-73
2022/10/01 08:09:46;;;;;;;3.03;1.97;;;;;;;13.05;61.36;96914.28;5050253;28;20533;-74
2022/10/01 08:12:12;;;;;;;2.33;1.93;;;;;;;13.00;61.59;96908.69;5050463;28;20270;-75
2022/10/01 08:14:37;;;;;;;2.33;1.80;;;;;;;12.90;62.19;96918.63;5050206;28;20170;-73
2022/10/01 08:17:02;;;;;;;3.53;1.80;;;;;;;12.84;63.08;96925.41;5047136;28;20650;-73
2022/10/01 08:19:28;;;;;;;2.80;1.70;;;;;;;12.89;63.01;96914.38;5049782;28;20171;-74
2022/10/01 08:21:54;;;;;;;1.50;1.40;;;;;;;12.98;63.00;96915.94;5040898;28;20171;-72
2022/10/01 08:24:20;;;;;;;4.27;1.70;;;;;;;13.03;63.42;96923.34;5049839;28;20513;-73
2022/10/01 08:26:50;;;;;;;2.43;1.97;;;;;;;13.13;63.18;96918.66;5049716;28;20183;-73
2022/10/01 08:29:16;;;;;;;2.03;1.60;;;;;;;13.10;63.51;96921.63;5050051;28;20217;-74
2022/10/01 08:31:41;;;;;;;2.63;1.70;;;;;;;13.03;63.80;96921.50;5049374;28;21031;-72
2022/10/01 08:34:07;;;;;;;2.27;2.07;;;;;;;13.01;63.93;96930.59;5049654;28;20585;-73
2022/10/01 08:36:34;;;;;;;2.17;1.60;;;;;;;12.93;64.67;96934.09;5034490;28;20659;-72
2022/10/01 08:39:01;;;;;;;2.03;1.90;;;;;;;13.04;64.45;96941.56;5045705;28;20194;-73
2022/10/01 08:41:45;;;;;;;4.13;2.13;;;;;;;13.12;64.35;96942.50;5027582;28;20417;-73
2022/10/01 08:44:26;;;;;;;6.77;3.77;;;;;;;12.90;65.58;96935.25;5031961;28;20583;-74
2022/10/01 08:46:54;;;;;;;2.20;1.90;;;;;;;13.05;65.21;96930.06;5049292;28;20428;-73
2022/10/01 08:49:36;;;;;;;2.83;2.60;;;;;;;13.06;65.88;96929.06;5049352;28;20958;-71
2022/10/01 08:52:02;;;;;;;1.90;1.70;;;;;;;13.16;65.22;96933.28;5048451;28;20424;-72
2022/10/01 08:54:32;;;;;;;2.60;2.00;;;;;;;13.13;65.67;96936.25;5047522;28;20457;-73
2022/10/01 08:57:03;;;;;;;3.23;2.80;;;;;;;13.08;66.30;96933.34;5048402;28;20428;-73
2022/10/01 08:59:44;;;;;;;2.60;2.40;;;;;;;13.16;66.01;96934.09;5031789;28;20417;-74
2022/10/01 09:02:23;;;;;;;3.07;2.77;;;;;;;13.34;65.51;96936.44;5050231;28;20414;-73
2022/10/01 09:05:11;;;;;;;2.73;2.10;;;;;;;13.26;65.85;96943.56;5053420;28;20519;-73
2022/10/01 09:07:39;;;;;;;2.37;2.17;;;;;;;13.31;66.33;96931.53;5037234;28;20484;-74
2022/10/01 09:10:23;;;;;;;3.60;2.00;;;;;;;13.31;65.93;96947.31;5052896;28;20449;-72
2022/10/01 09:12:52;;;;;;;2.03;1.77;;;;;;;13.28;66.17;96936.31;5052522;28;20938;-73
2022/10/01 09:15:37;;;;;;;2.43;1.70;;;;;;;13.34;66.45;96940.88;5052664;28;20418;-73
2022/10/01 09:18:44;;;;;;;2.57;1.93;;;;;;;13.36;66.75;96952.84;5050842;28;20458;-72
2022/10/01 09:21:45;;;;;;;1.93;1.73;;;;;;;13.40;66.71;96953.38;5045325;28;20418;-74
2022/10/01 09:24:15;;;;;;;1.67;1.53;;;;;;;13.42;66.92;96958.44;5049124;28;20517;-75
2022/10/01 09:26:49;;;;;;;5.40;1.60;;;;;;;13.51;67.07;96949.47;5043055;28;20421;-74
2022/10/01 09:29:34;;;;;;;3.90;2.00;;;;;;;13.45;67.88;96947.56;5052822;28;20441;-74
2022/10/01 09:32:00;;;;;;;2.33;1.70;;;;;;;13.59;67.25;96957.34;5051642;28;20413;-72
2022/10/01 09:34:37;;;;;;;1.87;1.73;;;;;;;13.57;66.97;96951.41;5049969;28;20990;-73
2022/10/01 09:37:13;;;;;;;2.10;2.00;;;;;;;13.43;67.22;96953.00;5033914;28;20440;-74
2022/10/01 09:40:05;;;;;;;1.83;1.70;;;;;;;13.65;67.06;96964.50;5038009;28;20954;-74
2022/10/01 09:42:31;;;;;;;1.30;1.20;;;;;;;13.74;67.15;96967.91;5040626;28;20998;-73
2022/10/01 09:44:57;;;;;;;2.53;1.90;;;;;;;13.76;67.29;96962.44;5029969;28;20461;-74
2022/10/01 09:47:24;;;;;;;2.33;1.53;;;;;;;13.83;67.46;96969.44;5051981;28;20202;-73
2022/10/01 09:49:50;;;;;;;1.20;1.10;;;;;;;13.91;67.16;96976.47;5051651;28;20206;-73
2022/10/01 09:52:25;;;;;;;1.20;0.90;;;;;;;13.85;67.08;96969.28;5050142;28;20501;-73
2022/10/01 09:55:04;;;;;;;2.10;1.40;;;;;;;13.87;66.94;96964.63;5051100;28;20199;-73
2022/10/01 09:57:49;;;;;;;2.73;1.10;;;;;;;13.83;67.47;96966.00;5035741;28;21201;-75
2022/10/01 10:00:21;;;;;;;1.77;1.40;;;;;;;13.86;67.39;96970.91;5051434;28;20787;-74
2022/10/01 10:02:48;;;;;;;1.40;1.20;;;;;;;14.02;67.32;96963.84;5051490;28;20503;-74
2022/10/01 10:05:20;;;;;;;5.07;1.30;;;;;;;14.04;67.30;96967.97;5050979;28;20477;-74
2022/10/01 10:07:49;;;;;;;1.57;1.10;;;;;;;13.99;67.35;96965.03;5045933;28;20449;-74
2022/10/01 10:10:20;;;;;;;1.20;1.07;;;;;;;14.03;67.45;96976.03;5033493;28;20790;-74
2022/10/01 10:12:46;;;;;;;1.73;1.00;;;;;;;13.93;67.83;96979.75;5043981;28;20944;-74
2022/10/01 10:15:16;;;;;;;1.50;1.23;;;;;;;13.89;68.11;96981.09;5049786;28;20501;-74
2022/10/01 10:17:43;;;;;;;1.30;0.90;;;;;;;14.07;67.71;96977.31;5051593;28;20463;-73
2022/10/01 10:20:11;;;;;;;1.20;1.10;;;;;;;14.02;67.89;96995.47;5049952;28;20505;-74
2022/10/01 10:22:36;;;;;;;1.43;1.20;;;;;;;14.01;67.50;96993.81;5030453;28;20770;-73
2022/10/01 10:25:11;;;;;;;1.30;1.20;;;;;;;14.13;67.51;96985.31;5048229;28;20443;-74
2022/10/01 10:27:37;;;;;;;1.50;1.00;;;;;;;14.14;67.75;96986.13;5050134;28;20206;-74
2022/10/01 10:30:12;;;;;;;1.53;1.00;;;;;;;14.04;68.02;97004.84;5050032;28;20450;-73
2022/10/01 10:32:37;;;;;;;1.47;1.00;;;;;;;14.10;67.85;97009.38;5052207;28;20196;-73
2022/10/01 10:35:08;;;;;;;1.70;1.07;;;;;;;14.11;68.01;96999.69;5051716;28;21099;-74
2022/10/01 10:37:36;;;;;;;1.10;0.93;;;;;;;14.15;67.84;97003.56;5030629;28;20235;-74
2022/10/01 10:40:04;;;;;;;3.80;1.53;;;;;;;14.13;68.46;97001.13;5050058;28;20880;-73
2022/10/01 10:42:29;;;;;;;1.30;1.17;;;;;;;14.12;68.21;96998.66;5045360;28;20452;-73
2022/10/01 10:45:02;;;;;;;1.30;1.20;;;;;;;14.28;68.24;96980.03;5051720;28;20417;-73
2022/10/01 10:47:28;;;;;;;1.57;0.93;;;;;;;14.23;68.58;96998.25;5048873;28;20728;-73
2022/10/01 10:49:59;;;;;;;1.90;1.10;;;;;;;14.20;68.43;96995.13;5045265;28;20444;-73
2022/10/01 10:52:32;;;;;;;2.70;0.90;;;;;;;14.12;69.40;96993.38;5049264;28;20917;-73
2022/10/01 10:54:59;;;;;;;1.10;0.80;;;;;;;14.39;68.82;96980.59;5050550;28;20432;-73
2022/10/01 10:57:30;;;;;;;1.27;1.00;;;;;;;14.45;69.17;96985.16;5041561;28;20446;-74
2022/10/01 11:00:16;;;;;;;1.77;0.73;;;;;;;14.68;68.03;96989.53;5051701;28;20414;-73
2022/10/01 11:03:03;;;;;;;2.67;0.93;;;;;;;14.78;67.88;96970.78;5051782;28;20434;-73
2022/10/01 11:05:31;;;;;;;1.30;1.00;;;;;;;14.76;67.41;96967.50;5046253;28;20414;-73
2022/10/01 11:08:03;;;;;;;1.27;1.00;;;;;;;14.99;67.03;96970.00;5040230;28;20952;-74
2022/10/01 11:10:41;;;;;;;1.00;0.83;;;;;;;15.25;66.14;96968.66;5034099;28;20556;-74
2022/10/01 11:13:17;;;;;;;1.33;1.00;;;;;;;15.50;65.61;96966.44;5050232;28;20425;-74
2022/10/01 11:16:13;;;;;;;1.00;0.80;;;;;;;15.34;64.52;96983.38;5052461;28;20425;-74
2022/10/01 11:18:44;;;;;;;1.00;0.90;;;;;;;15.45;64.76;96968.81;5051511;28;20872;-74
2022/10/01 11:21:21;;;;;;;2.00;0.77;;;;;;;15.44;64.44;96964.53;5041898;28;20422;-74
2022/10/01 11:23:47;;;;;;;0.90;0.77;;;;;;;15.30;64.40;96967.09;5045523;28;20446;-73
2022/10/01 11:26:41;;;;;;;1.60;0.93;;;;;;;15.35;64.66;96964.69;5048146;28;20515;-74
2022/10/01 11:29:21;;;;;;;0.90;0.70;;;;;;;15.16;64.71;96971.41;5039031;28;20657;-73
2022/10/01 11:32:32;;;;;;;1.10;1.00;;;;;;;15.24;64.89;96967.81;5049839;28;21041;-72
2022/10/01 11:35:10;;;;;;;0.90;0.70;;;;;;;15.37;64.20;96975.06;5027681;28;20430;-73
2022/10/01 11:37:46;;;;;;;0.93;0.70;;;;;;;15.25;64.47;96971.28;5001004;28;20553;-74
2022/10/01 11:40:20;;;;;;;1.20;0.70;;;;;;;15.18;64.37;96972.03;5036385;28;20421;-74
2022/10/01 11:42:47;;;;;;;1.20;0.97;;;;;;;15.04;64.88;96983.44;5038868;28;20816;-74
2022/10/01 11:45:20;;;;;;;1.10;0.70;;;;;;;14.96;64.96;96988.84;5050441;28;20471;-74
2022/10/01 11:47:56;;;;;;;1.30;0.83;;;;;;;14.97;65.02;96993.13;5048277;28;20434;-73
2022/10/01 11:50:24;;;;;;;2.20;0.80;;;;;;;15.05;64.52;96993.00;5050248;28;20453;-73